X  Schlie├čen METAR Luftfahrt Wetterdaten     EDDC Dresden Airport
Temperatur
10°C Temperatur
8°C Taupunkt
88% Feuchtigkeit



Wind
16 KM/S
10 MPS
4 M/S
9 KTS



150°
SSO
Aktuelle Wetterlage

Klar Klar
Luftdruck 1026.92 (hPa) - 30.32 (inHg)
Sichtweite 6.2 (Meile) - 10 (Km)
Flughafen
Flughafen Code EDDC

Position : Dresden Airport
Entfernung: 117 (Km)

Metar:
EDDC 070650Z AUTO 15009KT CAVOK 10/08 Q1027 NOSIG

Zeit: 07-10-2022 08:50 CEST